Helas — C4AZ2 — position and weather

sailwx.info

Track history (hours):
 
Tides and Currents Weather Stations Pressure Air Temp Water Temp Dewpoint Dewpoint Depression Visibility Wind Speed Wind Dir Waves Ship Positions

Helas

Last reported at 2017-Mar-21 00:10 UTC. Time now 2017-Mar-23 18:33 UTC.
Position N 46°40' W 002°37'.

Length 89 m; draft 4.8 m.

Type: Cargo ship. MMSI: 210031000.

Date/timePositionNaut miles runAvg speedWind from/ knotsBaromVisibWave heightAir tempDewpointWater temp
2017-Mar-21 00:10N 46°40' W 002°37'8 9.8
2017-Mar-20 23:20N 46°48' W 002°36'10 9.9
2017-Mar-20 22:18N 46°58' W 002°35'6 8.0
2017-Mar-20 21:31N 47°03' W 002°30'8 7.8
2017-Mar-20 20:33N 47°08' W 002°22'9 9.0
2017-Mar-20 19:33N 47°15' W 002°13'2 2.0
2017-Mar-20 18:30N 47°17' W 002°12'0 0.0
2017-Mar-20 17:33N 47°17' W 002°12'0 0.0
2017-Mar-20 16:30N 47°17' W 002°12'0 0.0
2017-Mar-20 15:30N 47°17' W 002°12'0 0.0
2017-Mar-20 14:33N 47°17' W 002°12'0 0.0
2017-Mar-20 13:33N 47°17' W 002°12'0 0.0
2017-Mar-20 12:27N 47°17' W 002°12'0 0.0
2017-Mar-20 11:33N 47°17' W 002°12'0 0.0
2017-Mar-20 10:21N 47°17' W 002°12'0 0.0
2017-Mar-20 09:33N 47°17' W 002°12'0 0.0
2017-Mar-20 08:33N 47°17' W 002°12'0 0.0
2017-Mar-20 07:33N 47°17' W 002°12'0 0.0
2017-Mar-20 06:33N 47°17' W 002°12'0 0.0
2017-Mar-20 05:30N 47°17' W 002°12'0 0.0
2017-Mar-20 04:33N 47°17' W 002°12'0 0.0
2017-Mar-20 03:33N 47°17' W 002°12'0 0.0
2017-Mar-20 02:33N 47°17' W 002°12'0 0.0
2017-Mar-20 01:30N 47°17' W 002°12'0 0.0
2017-Mar-20 00:33N 47°17' W 002°12'0 0.0
2017-Mar-19 23:33N 47°17' W 002°12'0 0.0
2017-Mar-19 22:33N 47°17' W 002°12'0 0.0
2017-Mar-19 21:33N 47°17' W 002°12'0 0.0
2017-Mar-19 20:33N 47°17' W 002°12'0 0.0
2017-Mar-19 19:33N 47°17' W 002°12'0 0.0
2017-Mar-19 18:33N 47°17' W 002°12'0 0.0
2017-Mar-19 17:33N 47°17' W 002°12'0 0.0
2017-Mar-19 16:33N 47°17' W 002°12'0 0.0
2017-Mar-19 15:30N 47°17' W 002°12'0 0.0
2017-Mar-19 14:33N 47°17' W 002°12'0 0.0
2017-Mar-19 13:33N 47°17' W 002°12'0 0.0
2017-Mar-19 12:32N 47°17' W 002°12'0 0.0
2017-Mar-19 11:32N 47°17' W 002°12'0 0.0
2017-Mar-19 10:32N 47°17' W 002°12'0 0.0
2017-Mar-19 09:32N 47°17' W 002°12'0 0.0
2017-Mar-19 08:32N 47°17' W 002°12'0 0.0
2017-Mar-19 07:32N 47°17' W 002°12'0 0.0
2017-Mar-19 06:32N 47°17' W 002°12'0 0.0
2017-Mar-19 05:32N 47°17' W 002°12'0 0.0
2017-Mar-19 04:32N 47°17' W 002°12'0 0.0
2017-Mar-19 03:32N 47°17' W 002°12'0 0.0
2017-Mar-19 02:32N 47°17' W 002°12'0 0.0
2017-Mar-19 01:32N 47°17' W 002°12'0 0.0
2017-Mar-19 00:32N 47°17' W 002°12'0 0.0
2017-Mar-18 23:32N 47°17' W 002°12'0 0.0
2017-Mar-18 22:32N 47°17' W 002°12'0 0.0
2017-Mar-18 21:32N 47°17' W 002°12'0 0.0
2017-Mar-18 20:32N 47°17' W 002°12'0 0.0
2017-Mar-18 19:32N 47°17' W 002°12'0 0.0
2017-Mar-18 18:32N 47°17' W 002°12'0 0.0
2017-Mar-18 17:32N 47°17' W 002°12'0 0.0
2017-Mar-18 16:26N 47°17' W 002°12'0 0.0
2017-Mar-18 15:32N 47°17' W 002°12'0 0.0
2017-Mar-18 14:29N 47°17' W 002°12'0 0.0
2017-Mar-18 13:32N 47°17' W 002°12'0 0.0
2017-Mar-18 12:32N 47°17' W 002°12'0 0.0
2017-Mar-18 11:29N 47°17' W 002°12'0 0.0
2017-Mar-18 10:26N 47°17' W 002°12'0 0.0
2017-Mar-18 09:32N 47°17' W 002°12'0 0.0
2017-Mar-18 08:32N 47°17' W 002°12'0 0.0
2017-Mar-18 07:26N 47°17' W 002°12'0 0.0
2017-Mar-18 06:32N 47°17' W 002°12'0 0.0
2017-Mar-18 05:32N 47°17' W 002°12'0 0.0
2017-Mar-18 04:31N 47°17' W 002°12'0 0.0
2017-Mar-18 02:19N 47°17' W 002°12'0 0.0
2017-Mar-18 01:31N 47°17' W 002°12'0 0.0
2017-Mar-18 00:31N 47°17' W 002°12'0 0.0
2017-Mar-17 23:31N 47°17' W 002°12'0 0.0
2017-Mar-17 22:31N 47°17' W 002°12'0 0.0
2017-Mar-17 21:33N 47°17' W 002°12'1 0.7
2017-Mar-17 20:33N 47°16' W 002°12'0 0.3
2017-Mar-17 19:33N 47°16' W 002°12'5 4.8
2017-Mar-17 18:33N 47°12' W 002°17'7 7.3
2017-Mar-17 17:34N 47°09' W 002°26'0 0.1
2017-Mar-17 16:31N 47°09' W 002°26'0 0.0
2017-Mar-17 15:31N 47°09' W 002°26'0 0.1
2017-Mar-17 14:31N 47°09' W 002°26'0 0.1
2017-Mar-17 13:19N 47°09' W 002°27'0 0.0
2017-Mar-17 12:25N 47°09' W 002°27'0 0.0
2017-Mar-17 11:19N 47°09' W 002°27'0 0.0
2017-Mar-17 10:28N 47°09' W 002°27'0 0.0
2017-Mar-17 09:31N 47°09' W 002°27'0 0.0
2017-Mar-17 08:31N 47°09' W 002°27'4 4.4
2017-Mar-17 07:33N 47°05' W 002°30'9 8.5
2017-Mar-17 06:32N 46°60' W 002°40'9 9.3
2017-Mar-17 05:32N 46°60' W 002°54'7 6.9
2017-Mar-17 04:33N 47°00' W 003°04'6 5.8
2017-Mar-17 03:33N 47°01' W 003°12'6 6.2
2017-Mar-17 02:33N 47°04' W 003°20'6 6.2
2017-Mar-17 01:33N 47°07' W 003°28'6 5.9
2017-Mar-17 00:33N 47°10' W 003°35'6 5.8
2017-Mar-16 23:33N 47°13' W 003°42'6 5.9
2017-Mar-16 22:33N 47°16' W 003°50'9 8.6
2017-Mar-16 21:32N 47°20' W 004°01'9 8.8
2017-Mar-16 20:33N 47°24' W 004°12'9 9.1
2017-Mar-16 19:32N 47°29' W 004°24'18 9.0
2017-Mar-16 17:32N 47°39' W 004°46'12 8.7
2017-Mar-16 16:10N 47°47' W 004°60'7 8.1
2017-Mar-16 15:14N 47°52' W 005°08'5 7.9
2017-Mar-16 14:33N 47°56' W 005°14'9 8.3
2017-Mar-16 13:32N 48°02' W 005°22'9 9.0
2017-Mar-16 12:30N 48°10' W 005°30'9 9.4
2017-Mar-16 11:34N 48°17' W 005°37'10 9.7
2017-Mar-16 10:30N 48°26' W 005°45'8 8.5
2017-Mar-16 09:32N 48°33' W 005°51'18 8.6
2017-Mar-16 07:30N 48°51' W 005°47'7 7.6
2017-Mar-16 06:33N 48°55' W 005°38'7 7.2
2017-Mar-16 05:31N 48°59' W 005°28'7 7.2
2017-Mar-16 04:29N 49°03' W 005°18'7 7.7
2017-Mar-16 03:33N 49°06' W 005°09'11 8.8
2017-Mar-16 02:18N 49°12' W 004°55'9 9.8
2017-Mar-16 01:26N 49°16' W 004°43'910.6
2017-Mar-16 00:33N 49°21' W 004°31'1110.4
2017-Mar-15 23:32N 49°26' W 004°17'7 7.0
2017-Mar-15 22:31N 49°30' W 004°07'3 2.8
2017-Mar-15 21:29N 49°31' W 004°03'8 7.7
2017-Mar-15 20:24N 49°35' W 003°52'6 7.1
2017-Mar-15 19:33N 49°38' W 003°44'7 7.1
2017-Mar-15 18:33N 49°42' W 003°35'8 7.9
2017-Mar-15 17:33N 49°46' W 003°24'9 9.3
2017-Mar-15 16:33N 49°51' W 003°12'6 5.4
2017-Mar-15 15:24N 49°54' W 003°03'1011.3
2017-Mar-15 14:31N 49°58' W 002°50'1110.8
2017-Mar-15 13:29N 50°01' W 002°33'13 5.4
2017-Mar-15 11:07N 50°05' W 002°13'0 0.8
2017-Mar-15 10:32N 50°05' W 002°14'6 5.4
2017-Mar-15 09:25N 50°07' W 002°05'5 5.3
2017-Mar-15 08:33N 50°08' W 001°58'6 6.3
2017-Mar-15 07:33N 50°10' W 001°49'7 7.4
2017-Mar-15 06:33N 50°12' W 001°38'8 8.0
2017-Mar-15 05:33N 50°15' W 001°26'1211.8
2017-Mar-15 04:33N 50°18' W 001°08'2911.9
2017-Mar-15 02:07N 50°27' W 000°25'610.3
2017-Mar-15 01:32N 50°29' W 000°16'9 9.2
2017-Mar-15 00:33N 50°31' W 000°02'8 7.9
2017-Mar-14 23:33N 50°33' E 000°10'7 6.9
2017-Mar-14 22:33N 50°35' E 000°20'7 6.6
2017-Mar-14 21:33N 50°37' E 000°30'8 8.0
2017-Mar-14 20:33N 50°41' E 000°41'10 9.8
2017-Mar-14 19:33N 50°47' E 000°54'1110.4
2017-Mar-14 18:29N 50°54' E 001°08'910.0
2017-Mar-14 17:33N 50°60' E 001°19'9 8.9
2017-Mar-14 16:33N 51°06' E 001°30'7 6.9
2017-Mar-14 15:33N 51°10' E 001°38'6 5.9
2017-Mar-14 14:33N 51°14' E 001°45'6 6.0
2017-Mar-14 13:33N 51°19' E 001°50'7 7.0
2017-Mar-14 12:33N 51°25' E 001°56'9 8.8
2017-Mar-14 11:33N 51°32' E 002°04'1010.2
2017-Mar-14 10:32N 51°40' E 002°16'1110.7
2017-Mar-14 09:33N 51°47' E 002°27'1110.5
2017-Mar-14 08:32N 51°55' E 002°39'34 8.6
2017-Mar-14 04:31N 52°18' E 003°21'8 7.3
2017-Mar-14 03:24N 52°22' E 003°33'6 7.1
2017-Mar-14 02:33N 52°26' E 003°40'8 7.9
2017-Mar-14 01:33N 52°30' E 003°51'9 8.8
2017-Mar-14 00:33N 52°31' E 004°06'9 9.0
2017-Mar-13 23:33N 52°30' E 004°20'9 8.9
2017-Mar-13 22:33N 52°28' E 004°35'2 1.9
2017-Mar-13 21:32N 52°28' E 004°38'0 0.0
2017-Mar-13 20:32N 52°28' E 004°38'0 0.0
2017-Mar-13 19:32N 52°28' E 004°38'0 0.0
2017-Mar-13 18:31N 52°28' E 004°38'0 0.0
2017-Mar-13 17:31N 52°28' E 004°38'0 0.0
2017-Mar-13 16:31N 52°28' E 004°38'0 0.0
2017-Mar-13 15:28N 52°28' E 004°38'0 0.0
2017-Mar-13 14:31N 52°28' E 004°38'0 0.0
2017-Mar-13 13:31N 52°28' E 004°38'0 0.0
2017-Mar-13 12:28N 52°28' E 004°38'0 0.0
2017-Mar-13 11:31N 52°28' E 004°38'0 0.0
2017-Mar-13 10:33N 52°28' E 004°38'0 0.0
2017-Mar-13 09:33N 52°28' E 004°38'0 0.0
2017-Mar-13 08:33N 52°28' E 004°38'0 0.0
2017-Mar-13 07:33N 52°28' E 004°38'0 0.0
2017-Mar-13 06:33N 52°28' E 004°38'0 0.0
2017-Mar-13 05:33N 52°28' E 004°38'0 0.0
2017-Mar-13 04:33N 52°28' E 004°38'0 0.0
2017-Mar-13 03:33N 52°28' E 004°38'0 0.0
2017-Mar-13 02:33N 52°28' E 004°38'0 0.0
2017-Mar-13 01:33N 52°28' E 004°38'0 0.0
2017-Mar-13 00:33N 52°28' E 004°38'0 0.0
2017-Mar-12 23:33N 52°28' E 004°38'0 0.0
2017-Mar-12 22:33N 52°28' E 004°38'0 0.0
2017-Mar-12 21:33N 52°28' E 004°38'0 0.0
2017-Mar-12 20:33N 52°28' E 004°38'0 0.0
2017-Mar-12 19:21N 52°28' E 004°38'0 0.0
2017-Mar-12 18:33N 52°28' E 004°38'2 1.6
2017-Mar-12 17:34N 52°28' E 004°35'1 0.7
2017-Mar-12 16:31N 52°28' E 004°36'0 0.0
2017-Mar-12 15:31N 52°28' E 004°36'0 0.0
2017-Mar-12 13:31N 52°28' E 004°36'0 0.0
2017-Mar-12 12:31N 52°28' E 004°36'0 0.0
2017-Mar-12 11:31N 52°28' E 004°36'0 0.0
2017-Mar-12 10:31N 52°28' E 004°36'0 0.0
2017-Mar-12 09:31N 52°28' E 004°36'0 0.0
2017-Mar-12 08:31N 52°28' E 004°36'0 0.0
2017-Mar-12 07:34N 52°28' E 004°36'0 0.0
2017-Mar-12 06:33N 52°28' E 004°36'0 0.0
2017-Mar-12 05:33N 52°28' E 004°36'0 0.0
2017-Mar-12 04:33N 52°28' E 004°36'0 0.0
2017-Mar-12 03:33N 52°28' E 004°36'0 0.0
2017-Mar-12 02:33N 52°28' E 004°36'0 0.1
2017-Mar-12 01:33N 52°28' E 004°36'0 0.0
2017-Mar-12 00:33N 52°28' E 004°36'0 0.0
2017-Mar-11 23:33N 52°28' E 004°36'0 0.0
2017-Mar-11 22:33N 52°28' E 004°36'0 0.0
2017-Mar-11 21:30N 52°28' E 004°36'0 0.0
2017-Mar-11 20:33N 52°28' E 004°36'0 0.0
2017-Mar-11 19:33N 52°28' E 004°36'0 0.0
2017-Mar-11 18:33N 52°28' E 004°36'0 0.0
2017-Mar-11 17:33N 52°28' E 004°36'0 0.0
2017-Mar-11 16:33N 52°28' E 004°36'0 0.0
2017-Mar-11 15:33N 52°28' E 004°36'0 0.0
2017-Mar-11 14:33N 52°28' E 004°36'0 0.0
2017-Mar-11 13:33N 52°28' E 004°36'0 0.0
2017-Mar-11 12:33N 52°28' E 004°36'3 3.4
2017-Mar-11 11:34N 52°28' E 004°31'9 8.8
2017-Mar-11 10:33N 52°29' E 004°16'7 7.4
2017-Mar-11 09:34N 52°28' E 004°04'6 6.0
2017-Mar-11 08:33N 52°26' E 003°55'8 7.9
2017-Mar-11 07:33N 52°22' E 003°44'8 7.6
2017-Mar-11 06:33N 52°18' E 003°33'6 5.7
2017-Mar-11 05:32N 52°15' E 003°25'9 8.2
2017-Mar-11 04:26N 52°09' E 003°14'3310.6
2017-Mar-11 01:21N 51°45' E 002°37'911.4
2017-Mar-11 00:34N 51°38' E 002°28'  
Track history (hours):
 
Tides and Currents Weather Stations Pressure Air Temp Water Temp Dewpoint Dewpoint Depression Visibility Wind Speed Wind Dir Waves Ship Positions

Helas

Last reported at 2017-Mar-21 00:10 UTC. Time now 2017-Mar-23 18:33 UTC.
Position N 46°40' W 002°37'.

Length 89 m; draft 4.8 m.

Type: Cargo ship. MMSI: 210031000.

Date/timePositionNaut miles runAvg speedWind from/ knotsBaromVisibWave heightAir tempDewpointWater temp
2017-Mar-21 00:10N 46°40' W 002°37'8 9.8
2017-Mar-20 23:20N 46°48' W 002°36'10 9.9
2017-Mar-20 22:18N 46°58' W 002°35'6 8.0
2017-Mar-20 21:31N 47°03' W 002°30'8 7.8
2017-Mar-20 20:33N 47°08' W 002°22'9 9.0
2017-Mar-20 19:33N 47°15' W 002°13'2 2.0
2017-Mar-20 18:30N 47°17' W 002°12'0 0.0
2017-Mar-20 17:33N 47°17' W 002°12'0 0.0
2017-Mar-20 16:30N 47°17' W 002°12'0 0.0
2017-Mar-20 15:30N 47°17' W 002°12'0 0.0
2017-Mar-20 14:33N 47°17' W 002°12'0 0.0
2017-Mar-20 13:33N 47°17' W 002°12'0 0.0
2017-Mar-20 12:27N 47°17' W 002°12'0 0.0
2017-Mar-20 11:33N 47°17' W 002°12'0 0.0
2017-Mar-20 10:21N 47°17' W 002°12'0 0.0
2017-Mar-20 09:33N 47°17' W 002°12'0 0.0
2017-Mar-20 08:33N 47°17' W 002°12'0 0.0
2017-Mar-20 07:33N 47°17' W 002°12'0 0.0
2017-Mar-20 06:33N 47°17' W 002°12'0 0.0
2017-Mar-20 05:30N 47°17' W 002°12'0 0.0
2017-Mar-20 04:33N 47°17' W 002°12'0 0.0
2017-Mar-20 03:33N 47°17' W 002°12'0 0.0
2017-Mar-20 02:33N 47°17' W 002°12'0 0.0
2017-Mar-20 01:30N 47°17' W 002°12'0 0.0
2017-Mar-20 00:33N 47°17' W 002°12'0 0.0
2017-Mar-19 23:33N 47°17' W 002°12'0 0.0
2017-Mar-19 22:33N 47°17' W 002°12'0 0.0
2017-Mar-19 21:33N 47°17' W 002°12'0 0.0
2017-Mar-19 20:33N 47°17' W 002°12'0 0.0
2017-Mar-19 19:33N 47°17' W 002°12'0 0.0
2017-Mar-19 18:33N 47°17' W 002°12'0 0.0
2017-Mar-19 17:33N 47°17' W 002°12'0 0.0
2017-Mar-19 16:33N 47°17' W 002°12'0 0.0
2017-Mar-19 15:30N 47°17' W 002°12'0 0.0
2017-Mar-19 14:33N 47°17' W 002°12'0 0.0
2017-Mar-19 13:33N 47°17' W 002°12'0 0.0
2017-Mar-19 12:32N 47°17' W 002°12'0 0.0
2017-Mar-19 11:32N 47°17' W 002°12'0 0.0
2017-Mar-19 10:32N 47°17' W 002°12'0 0.0
2017-Mar-19 09:32N 47°17' W 002°12'0 0.0
2017-Mar-19 08:32N 47°17' W 002°12'0 0.0
2017-Mar-19 07:32N 47°17' W 002°12'0 0.0
2017-Mar-19 06:32N 47°17' W 002°12'0 0.0
2017-Mar-19 05:32N 47°17' W 002°12'0 0.0
2017-Mar-19 04:32N 47°17' W 002°12'0 0.0
2017-Mar-19 03:32N 47°17' W 002°12'0 0.0
2017-Mar-19 02:32N 47°17' W 002°12'0 0.0
2017-Mar-19 01:32N 47°17' W 002°12'0 0.0
2017-Mar-19 00:32N 47°17' W 002°12'0 0.0
2017-Mar-18 23:32N 47°17' W 002°12'0 0.0
2017-Mar-18 22:32N 47°17' W 002°12'0 0.0
2017-Mar-18 21:32N 47°17' W 002°12'0 0.0
2017-Mar-18 20:32N 47°17' W 002°12'0 0.0
2017-Mar-18 19:32N 47°17' W 002°12'0 0.0
2017-Mar-18 18:32N 47°17' W 002°12'0 0.0
2017-Mar-18 17:32N 47°17' W 002°12'0 0.0
2017-Mar-18 16:26N 47°17' W 002°12'0 0.0
2017-Mar-18 15:32N 47°17' W 002°12'0 0.0
2017-Mar-18 14:29N 47°17' W 002°12'0 0.0
2017-Mar-18 13:32N 47°17' W 002°12'0 0.0
2017-Mar-18 12:32N 47°17' W 002°12'0 0.0
2017-Mar-18 11:29N 47°17' W 002°12'0 0.0
2017-Mar-18 10:26N 47°17' W 002°12'0 0.0
2017-Mar-18 09:32N 47°17' W 002°12'0 0.0
2017-Mar-18 08:32N 47°17' W 002°12'0 0.0
2017-Mar-18 07:26N 47°17' W 002°12'0 0.0
2017-Mar-18 06:32N 47°17' W 002°12'0 0.0
2017-Mar-18 05:32N 47°17' W 002°12'0 0.0
2017-Mar-18 04:31N 47°17' W 002°12'0 0.0
2017-Mar-18 02:19N 47°17' W 002°12'0 0.0
2017-Mar-18 01:31N 47°17' W 002°12'0 0.0
2017-Mar-18 00:31N 47°17' W 002°12'0 0.0
2017-Mar-17 23:31N 47°17' W 002°12'0 0.0
2017-Mar-17 22:31N 47°17' W 002°12'0 0.0
2017-Mar-17 21:33N 47°17' W 002°12'1 0.7
2017-Mar-17 20:33N 47°16' W 002°12'0 0.3
2017-Mar-17 19:33N 47°16' W 002°12'5 4.8
2017-Mar-17 18:33N 47°12' W 002°17'7 7.3
2017-Mar-17 17:34N 47°09' W 002°26'0 0.1
2017-Mar-17 16:31N 47°09' W 002°26'0 0.0
2017-Mar-17 15:31N 47°09' W 002°26'0 0.1
2017-Mar-17 14:31N 47°09' W 002°26'0 0.1
2017-Mar-17 13:19N 47°09' W 002°27'0 0.0
2017-Mar-17 12:25N 47°09' W 002°27'0 0.0
2017-Mar-17 11:19N 47°09' W 002°27'0 0.0
2017-Mar-17 10:28N 47°09' W 002°27'0 0.0
2017-Mar-17 09:31N 47°09' W 002°27'0 0.0
2017-Mar-17 08:31N 47°09' W 002°27'4 4.4
2017-Mar-17 07:33N 47°05' W 002°30'9 8.5
2017-Mar-17 06:32N 46°60' W 002°40'9 9.3
2017-Mar-17 05:32N 46°60' W 002°54'7 6.9
2017-Mar-17 04:33N 47°00' W 003°04'6 5.8
2017-Mar-17 03:33N 47°01' W 003°12'6 6.2
2017-Mar-17 02:33N 47°04' W 003°20'6 6.2
2017-Mar-17 01:33N 47°07' W 003°28'6 5.9
2017-Mar-17 00:33N 47°10' W 003°35'6 5.8
2017-Mar-16 23:33N 47°13' W 003°42'6 5.9
2017-Mar-16 22:33N 47°16' W 003°50'9 8.6
2017-Mar-16 21:32N 47°20' W 004°01'9 8.8
2017-Mar-16 20:33N 47°24' W 004°12'9 9.1
2017-Mar-16 19:32N 47°29' W 004°24'18 9.0
2017-Mar-16 17:32N 47°39' W 004°46'12 8.7
2017-Mar-16 16:10N 47°47' W 004°60'7 8.1
2017-Mar-16 15:14N 47°52' W 005°08'5 7.9
2017-Mar-16 14:33N 47°56' W 005°14'9 8.3
2017-Mar-16 13:32N 48°02' W 005°22'9 9.0
2017-Mar-16 12:30N 48°10' W 005°30'9 9.4
2017-Mar-16 11:34N 48°17' W 005°37'10 9.7
2017-Mar-16 10:30N 48°26' W 005°45'8 8.5
2017-Mar-16 09:32N 48°33' W 005°51'18 8.6
2017-Mar-16 07:30N 48°51' W 005°47'7 7.6
2017-Mar-16 06:33N 48°55' W 005°38'7 7.2
2017-Mar-16 05:31N 48°59' W 005°28'7 7.2
2017-Mar-16 04:29N 49°03' W 005°18'7 7.7
2017-Mar-16 03:33N 49°06' W 005°09'11 8.8
2017-Mar-16 02:18N 49°12' W 004°55'9 9.8
2017-Mar-16 01:26N 49°16' W 004°43'910.6
2017-Mar-16 00:33N 49°21' W 004°31'1110.4
2017-Mar-15 23:32N 49°26' W 004°17'7 7.0
2017-Mar-15 22:31N 49°30' W 004°07'3 2.8
2017-Mar-15 21:29N 49°31' W 004°03'8 7.7
2017-Mar-15 20:24N 49°35' W 003°52'6 7.1
2017-Mar-15 19:33N 49°38' W 003°44'7 7.1
2017-Mar-15 18:33N 49°42' W 003°35'8 7.9
2017-Mar-15 17:33N 49°46' W 003°24'9 9.3
2017-Mar-15 16:33N 49°51' W 003°12'6 5.4
2017-Mar-15 15:24N 49°54' W 003°03'1011.3
2017-Mar-15 14:31N 49°58' W 002°50'1110.8
2017-Mar-15 13:29N 50°01' W 002°33'13 5.4
2017-Mar-15 11:07N 50°05' W 002°13'0 0.8
2017-Mar-15 10:32N 50°05' W 002°14'6 5.4
2017-Mar-15 09:25N 50°07' W 002°05'5 5.3
2017-Mar-15 08:33N 50°08' W 001°58'6 6.3
2017-Mar-15 07:33N 50°10' W 001°49'7 7.4
2017-Mar-15 06:33N 50°12' W 001°38'8 8.0
2017-Mar-15 05:33N 50°15' W 001°26'1211.8
2017-Mar-15 04:33N 50°18' W 001°08'2911.9
2017-Mar-15 02:07N 50°27' W 000°25'610.3
2017-Mar-15 01:32N 50°29' W 000°16'9 9.2
2017-Mar-15 00:33N 50°31' W 000°02'8 7.9
2017-Mar-14 23:33N 50°33' E 000°10'7 6.9
2017-Mar-14 22:33N 50°35' E 000°20'7 6.6
2017-Mar-14 21:33N 50°37' E 000°30'8 8.0
2017-Mar-14 20:33N 50°41' E 000°41'10 9.8
2017-Mar-14 19:33N 50°47' E 000°54'1110.4
2017-Mar-14 18:29N 50°54' E 001°08'910.0
2017-Mar-14 17:33N 50°60' E 001°19'9 8.9
2017-Mar-14 16:33N 51°06' E 001°30'7 6.9
2017-Mar-14 15:33N 51°10' E 001°38'6 5.9
2017-Mar-14 14:33N 51°14' E 001°45'6 6.0
2017-Mar-14 13:33N 51°19' E 001°50'7 7.0
2017-Mar-14 12:33N 51°25' E 001°56'9 8.8
2017-Mar-14 11:33N 51°32' E 002°04'1010.2
2017-Mar-14 10:32N 51°40' E 002°16'1110.7
2017-Mar-14 09:33N 51°47' E 002°27'1110.5
2017-Mar-14 08:32N 51°55' E 002°39'34 8.6
2017-Mar-14 04:31N 52°18' E 003°21'8 7.3
2017-Mar-14 03:24N 52°22' E 003°33'6 7.1
2017-Mar-14 02:33N 52°26' E 003°40'8 7.9
2017-Mar-14 01:33N 52°30' E 003°51'9 8.8
2017-Mar-14 00:33N 52°31' E 004°06'9 9.0
2017-Mar-13 23:33N 52°30' E 004°20'9 8.9
2017-Mar-13 22:33N 52°28' E 004°35'2 1.9
2017-Mar-13 21:32N 52°28' E 004°38'0 0.0
2017-Mar-13 20:32N 52°28' E 004°38'0 0.0
2017-Mar-13 19:32N 52°28' E 004°38'0 0.0
2017-Mar-13 18:31N 52°28' E 004°38'0 0.0
2017-Mar-13 17:31N 52°28' E 004°38'0 0.0
2017-Mar-13 16:31N 52°28' E 004°38'0 0.0
2017-Mar-13 15:28N 52°28' E 004°38'0 0.0
2017-Mar-13 14:31N 52°28' E 004°38'0 0.0
2017-Mar-13 13:31N 52°28' E 004°38'0 0.0
2017-Mar-13 12:28N 52°28' E 004°38'0 0.0
2017-Mar-13 11:31N 52°28' E 004°38'0 0.0
2017-Mar-13 10:33N 52°28' E 004°38'0 0.0
2017-Mar-13 09:33N 52°28' E 004°38'0 0.0
2017-Mar-13 08:33N 52°28' E 004°38'0 0.0
2017-Mar-13 07:33N 52°28' E 004°38'0 0.0
2017-Mar-13 06:33N 52°28' E 004°38'0 0.0
2017-Mar-13 05:33N 52°28' E 004°38'0 0.0
2017-Mar-13 04:33N 52°28' E 004°38'0 0.0
2017-Mar-13 03:33N 52°28' E 004°38'0 0.0
2017-Mar-13 02:33N 52°28' E 004°38'0 0.0
2017-Mar-13 01:33N 52°28' E 004°38'0 0.0
2017-Mar-13 00:33N 52°28' E 004°38'0 0.0
2017-Mar-12 23:33N 52°28' E 004°38'0 0.0
2017-Mar-12 22:33N 52°28' E 004°38'0 0.0
2017-Mar-12 21:33N 52°28' E 004°38'0 0.0
2017-Mar-12 20:33N 52°28' E 004°38'0 0.0
2017-Mar-12 19:21N 52°28' E 004°38'0 0.0
2017-Mar-12 18:33N 52°28' E 004°38'2 1.6
2017-Mar-12 17:34N 52°28' E 004°35'1 0.7
2017-Mar-12 16:31N 52°28' E 004°36'0 0.0
2017-Mar-12 15:31N 52°28' E 004°36'0 0.0
2017-Mar-12 13:31N 52°28' E 004°36'0 0.0
2017-Mar-12 12:31N 52°28' E 004°36'0 0.0
2017-Mar-12 11:31N 52°28' E 004°36'0 0.0
2017-Mar-12 10:31N 52°28' E 004°36'0 0.0
2017-Mar-12 09:31N 52°28' E 004°36'0 0.0
2017-Mar-12 08:31N 52°28' E 004°36'0 0.0
2017-Mar-12 07:34N 52°28' E 004°36'0 0.0
2017-Mar-12 06:33N 52°28' E 004°36'0 0.0
2017-Mar-12 05:33N 52°28' E 004°36'0 0.0
2017-Mar-12 04:33N 52°28' E 004°36'0 0.0
2017-Mar-12 03:33N 52°28' E 004°36'0 0.0
2017-Mar-12 02:33N 52°28' E 004°36'0 0.1
2017-Mar-12 01:33N 52°28' E 004°36'0 0.0
2017-Mar-12 00:33N 52°28' E 004°36'0 0.0
2017-Mar-11 23:33N 52°28' E 004°36'0 0.0
2017-Mar-11 22:33N 52°28' E 004°36'0 0.0
2017-Mar-11 21:30N 52°28' E 004°36'0 0.0
2017-Mar-11 20:33N 52°28' E 004°36'0 0.0
2017-Mar-11 19:33N 52°28' E 004°36'0 0.0
2017-Mar-11 18:33N 52°28' E 004°36'0 0.0
2017-Mar-11 17:33N 52°28' E 004°36'0 0.0
2017-Mar-11 16:33N 52°28' E 004°36'0 0.0
2017-Mar-11 15:33N 52°28' E 004°36'0 0.0
2017-Mar-11 14:33N 52°28' E 004°36'0 0.0
2017-Mar-11 13:33N 52°28' E 004°36'0 0.0
2017-Mar-11 12:33N 52°28' E 004°36'3 3.4
2017-Mar-11 11:34N 52°28' E 004°31'9 8.8
2017-Mar-11 10:33N 52°29' E 004°16'7 7.4
2017-Mar-11 09:34N 52°28' E 004°04'6 6.0
2017-Mar-11 08:33N 52°26' E 003°55'8 7.9
2017-Mar-11 07:33N 52°22' E 003°44'8 7.6
2017-Mar-11 06:33N 52°18' E 003°33'6 5.7
2017-Mar-11 05:32N 52°15' E 003°25'9 8.2
2017-Mar-11 04:26N 52°09' E 003°14'3310.6
2017-Mar-11 01:21N 51°45' E 002°37'911.4
2017-Mar-11 00:34N 51°38' E 002°28'  

Dump ship's entire track history